Time;durP1;ratioP1;P1;durP2;ratioP2;P2;SDS_P1;SDS_P2;PMS_P1;PMS_P2;Temp;Humidity;BMP_temperature;BMP_pressure;BME280_temperature;BME280_humidity;BME280_pressure;Samples;Min_cycle;Max_cycle;Signal;HPM_P1;HPM_P2
2023/08/10 00:01:27;;;;;;;5.97;1.90;;;;;;;;;;4912397;29;20196;-70
2023/08/10 00:03:54;;;;;;;5.53;2.10;;;;;;;;;;4893725;29;20320;-70
2023/08/10 00:06:39;;;;;;;5.13;2.00;;;;;;;;;;4910741;29;20187;-70
2023/08/10 00:09:07;;;;;;;5.27;2.30;;;;;;;;;;4893544;29;20234;-70
2023/08/10 00:11:34;;;;;;;6.83;2.10;;;;;;;;;;4910953;29;20618;-70
2023/08/10 00:14:03;;;;;;;5.10;2.00;;;;;;;;;;4895211;29;20244;-70
2023/08/10 00:16:30;;;;;;;4.43;2.00;;;;;;;;;;4913146;29;20230;-70
2023/08/10 00:18:57;;;;;;;5.40;1.90;;;;;;;;;;4894469;29;20199;-70
2023/08/10 00:21:24;;;;;;;2.63;1.60;;;;;;;;;;4912917;29;20175;-70
2023/08/10 00:23:51;;;;;;;6.10;2.00;;;;;;;;;;4893936;29;20200;-70
2023/08/10 00:26:36;;;;;;;5.20;1.70;;;;;;;;;;4913811;29;20175;-70
2023/08/10 00:29:02;;;;;;;6.07;1.80;;;;;;;;;;4912517;29;20214;-70
2023/08/10 00:31:47;;;;;;;5.30;1.77;;;;;;;;;;4895814;29;20248;-70
2023/08/10 00:34:13;;;;;;;3.37;1.60;;;;;;;;;;4896290;29;20258;-70
2023/08/10 00:36:40;;;;;;;5.23;1.50;;;;;;;;;;4895378;29;20188;-70
2023/08/10 00:39:07;;;;;;;5.73;1.70;;;;;;;;;;4912957;29;20184;-70
2023/08/10 00:41:34;;;;;;;5.83;1.80;;;;;;;;;;4895671;29;20184;-70
2023/08/10 00:44:03;;;;;;;4.50;1.67;;;;;;;;;;4896033;29;20198;-70
2023/08/10 00:46:30;;;;;;;5.07;1.50;;;;;;;;;;4895526;29;20234;-70
2023/08/10 00:48:57;;;;;;;4.50;1.20;;;;;;;;;;4912689;29;20218;-70
2023/08/10 00:51:24;;;;;;;5.03;1.50;;;;;;;;;;4895482;29;20189;-70
2023/08/10 00:53:51;;;;;;;6.17;1.70;;;;;;;;;;4895775;29;20179;-70
2023/08/10 00:56:17;;;;;;;4.77;1.57;;;;;;;;;;4911929;29;20223;-70
2023/08/10 00:58:44;;;;;;;3.83;1.50;;;;;;;;;;4893526;29;20279;-70
2023/08/10 01:01:11;;;;;;;5.30;1.60;;;;;;;;;;4912083;29;20200;-70
2023/08/10 01:03:38;;;;;;;6.03;1.83;;;;;;;;;;4910454;29;20681;-70
2023/08/10 01:06:07;;;;;;;7.07;1.87;;;;;;;;;;4910182;29;20270;-70
2023/08/10 01:08:43;;;;;;;4.50;1.70;;;;;;;;;;4892266;29;20213;-70
2023/08/10 01:47:20;;;;;;;3.37;1.60;;;;;;;;;;4909824;29;20222;-70
2023/08/10 01:49:48;;;;;;;5.23;1.77;;;;;;;;;;4862324;29;20208;-69
2023/08/10 01:52:14;;;;;;;6.00;1.90;;;;;;;;;;4874093;29;20315;-69
2023/08/10 01:54:41;;;;;;;5.07;1.70;;;;;;;;;;4897084;29;20243;-70
2023/08/10 01:57:09;;;;;;;4.77;2.10;;;;;;;;;;4877632;29;20266;-70
2023/08/10 01:59:36;;;;;;;4.90;1.60;;;;;;;;;;4892759;29;20938;-70
2023/08/10 02:02:04;;;;;;;5.57;1.83;;;;;;;;;;4892801;29;20202;-69
2023/08/10 02:04:33;;;;;;;4.03;1.50;;;;;;;;;;4891396;29;20192;-70
2023/08/10 02:07:01;;;;;;;7.53;1.70;;;;;;;;;;4909133;29;20191;-70
2023/08/10 02:09:28;;;;;;;3.00;1.40;;;;;;;;;;4892611;29;20251;-70
2023/08/10 02:11:54;;;;;;;3.93;1.50;;;;;;;;;;4911163;29;20211;-70
2023/08/10 02:14:21;;;;;;;5.40;1.77;;;;;;;;;;4909233;29;20639;-71
2023/08/10 02:16:48;;;;;;;5.67;1.63;;;;;;;;;;4908938;29;20210;-70
2023/08/10 02:19:33;;;;;;;4.93;1.70;;;;;;;;;;4889681;29;20576;-70
2023/08/10 02:22:00;;;;;;;4.47;1.73;;;;;;;;;;4908660;29;20168;-70
2023/08/10 02:24:44;;;;;;;3.87;1.73;;;;;;;;;;4909594;29;20205;-69
2023/08/10 02:27:11;;;;;;;3.13;1.70;;;;;;;;;;4891416;29;20339;-69
2023/08/10 02:29:55;;;;;;;3.73;1.63;;;;;;;;;;4895148;29;20178;-70
2023/08/10 02:32:22;;;;;;;2.80;1.63;;;;;;;;;;4892400;29;20210;-69
2023/08/10 02:34:50;;;;;;;3.43;1.50;;;;;;;;;;4891634;29;20201;-70
2023/08/10 02:37:16;;;;;;;4.37;1.73;;;;;;;;;;4912235;29;20208;-69
2023/08/10 02:39:43;;;;;;;3.30;1.47;;;;;;;;;;4913045;29;20539;-70
2023/08/10 02:42:10;;;;;;;7.00;1.90;;;;;;;;;;4912129;29;20274;-70
2023/08/10 02:44:37;;;;;;;4.30;1.90;;;;;;;;;;4910034;29;20262;-70
2023/08/10 02:47:04;;;;;;;3.37;1.57;;;;;;;;;;4911324;29;20607;-70
2023/08/10 02:49:31;;;;;;;4.63;1.50;;;;;;;;;;4895046;29;20198;-70
2023/08/10 02:51:57;;;;;;;5.77;2.00;;;;;;;;;;4911541;29;20644;-70
2023/08/10 02:54:24;;;;;;;2.70;1.50;;;;;;;;;;4911617;29;20202;-70
2023/08/10 02:56:51;;;;;;;4.90;2.20;;;;;;;;;;4913071;29;20599;-70
2023/08/10 02:59:17;;;;;;;4.03;1.60;;;;;;;;;;4865742;29;20209;-70
2023/08/10 03:01:45;;;;;;;5.13;1.90;;;;;;;;;;4900342;29;20192;-72
2023/08/10 03:04:13;;;;;;;3.53;1.90;;;;;;;;;;4891732;29;20990;-71
2023/08/10 03:06:40;;;;;;;4.73;1.80;;;;;;;;;;4910758;29;20226;-72
2023/08/10 03:09:07;;;;;;;3.50;1.80;;;;;;;;;;4915030;29;20221;-72
2023/08/10 03:11:34;;;;;;;3.80;1.67;;;;;;;;;;4902883;29;20202;-72
2023/08/10 03:14:02;;;;;;;3.70;1.60;;;;;;;;;;4890095;29;20223;-72
2023/08/10 03:16:30;;;;;;;3.57;1.60;;;;;;;;;;4893896;29;20199;-74
2023/08/10 03:18:57;;;;;;;3.80;1.50;;;;;;;;;;4910015;29;20274;-72
2023/08/10 03:21:25;;;;;;;6.47;1.90;;;;;;;;;;4895618;29;20208;-71
2023/08/10 03:23:52;;;;;;;3.23;1.50;;;;;;;;;;4895486;29;20199;-70
2023/08/10 03:26:19;;;;;;;5.10;1.70;;;;;;;;;;4879840;29;20202;-70
2023/08/10 03:28:46;;;;;;;4.80;1.77;;;;;;;;;;4899470;29;20199;-71
2023/08/10 03:31:13;;;;;;;4.20;1.90;;;;;;;;;;4887332;29;20205;-71
2023/08/10 03:33:40;;;;;;;2.77;1.70;;;;;;;;;;4884323;29;20234;-70
2023/08/10 03:36:07;;;;;;;4.23;2.10;;;;;;;;;;4880338;29;20243;-70
2023/08/10 03:38:34;;;;;;;2.50;1.60;;;;;;;;;;4899501;29;20285;-70
2023/08/10 03:41:01;;;;;;;3.87;1.40;;;;;;;;;;4895482;29;20294;-70
2023/08/10 03:43:28;;;;;;;4.07;1.73;;;;;;;;;;4921934;29;20658;-70
2023/08/10 03:45:54;;;;;;;2.43;1.40;;;;;;;;;;4899777;29;20729;-70
2023/08/10 03:48:21;;;;;;;5.67;1.60;;;;;;;;;;4885931;29;20314;-71
2023/08/10 03:50:48;;;;;;;5.90;2.10;;;;;;;;;;4913236;29;20208;-70
2023/08/10 03:53:15;;;;;;;4.77;1.40;;;;;;;;;;4913034;29;20219;-71
2023/08/10 03:55:59;;;;;;;4.40;1.80;;;;;;;;;;4903391;29;20174;-70
2023/08/10 03:58:26;;;;;;;3.33;1.60;;;;;;;;;;4899135;29;20193;-71
2023/08/10 04:00:54;;;;;;;3.10;1.47;;;;;;;;;;4919003;29;20195;-71
2023/08/10 04:03:20;;;;;;;2.70;1.40;;;;;;;;;;4921084;29;20203;-71
2023/08/10 04:05:47;;;;;;;6.53;1.60;;;;;;;;;;4905836;29;20213;-70
2023/08/10 04:08:14;;;;;;;6.20;1.67;;;;;;;;;;4904116;29;20243;-71
2023/08/10 04:10:41;;;;;;;5.57;1.60;;;;;;;;;;4916923;29;20184;-71
2023/08/10 04:13:08;;;;;;;8.17;1.63;;;;;;;;;;4916819;29;20776;-71
2023/08/10 04:15:34;;;;;;;5.10;1.40;;;;;;;;;;4915624;29;20195;-70
2023/08/10 04:18:02;;;;;;;4.30;1.50;;;;;;;;;;4913276;29;20223;-71
2023/08/10 04:20:30;;;;;;;4.10;1.47;;;;;;;;;;4926949;29;20203;-71
2023/08/10 04:23:14;;;;;;;5.83;1.97;;;;;;;;;;4924697;29;20184;-71
2023/08/10 04:25:41;;;;;;;6.07;2.10;;;;;;;;;;4916151;29;20233;-71
2023/08/10 04:28:07;;;;;;;2.03;1.30;;;;;;;;;;4909227;29;20649;-71
2023/08/10 04:30:34;;;;;;;3.87;1.60;;;;;;;;;;4898193;29;20195;-71
2023/08/10 04:33:01;;;;;;;3.67;1.73;;;;;;;;;;4925666;29;20211;-71
2023/08/10 04:35:28;;;;;;;4.30;2.33;;;;;;;;;;4895842;29;20199;-71
2023/08/10 04:37:54;;;;;;;4.90;2.13;;;;;;;;;;4916755;29;20195;-71
2023/08/10 04:40:21;;;;;;;3.67;2.10;;;;;;;;;;4890396;29;20202;-71
2023/08/10 04:42:48;;;;;;;3.53;2.10;;;;;;;;;;4919004;29;20203;-71
2023/08/10 04:45:15;;;;;;;3.47;1.80;;;;;;;;;;4886619;29;20186;-71
2023/08/10 04:47:41;;;;;;;4.97;2.00;;;;;;;;;;4904142;29;20214;-71
2023/08/10 04:50:25;;;;;;;5.50;1.90;;;;;;;;;;4920620;29;20195;-71
2023/08/10 04:52:52;;;;;;;5.00;1.93;;;;;;;;;;4897787;29;20215;-71
2023/08/10 04:55:36;;;;;;;7.33;2.40;;;;;;;;;;4919520;29;20179;-71
2023/08/10 04:58:03;;;;;;;4.00;1.93;;;;;;;;;;4932911;29;20316;-71
2023/08/10 05:00:47;;;;;;;5.43;1.90;;;;;;;;;;4915783;29;20190;-71
2023/08/10 05:03:14;;;;;;;2.60;1.60;;;;;;;;;;4904759;29;20282;-70
2023/08/10 05:05:41;;;;;;;3.83;1.73;;;;;;;;;;4899189;29;20237;-71
2023/08/10 05:08:07;;;;;;;4.07;1.50;;;;;;;;;;4897681;29;20707;-71
2023/08/10 05:10:34;;;;;;;7.17;2.03;;;;;;;;;;4898308;29;20191;-72
2023/08/10 05:13:01;;;;;;;4.07;1.60;;;;;;;;;;4898011;29;20295;-72
2023/08/10 05:15:28;;;;;;;4.90;1.97;;;;;;;;;;4914308;29;20290;-71
2023/08/10 05:17:55;;;;;;;3.40;1.40;;;;;;;;;;4895267;29;20208;-71
2023/08/10 05:20:22;;;;;;;4.07;2.20;;;;;;;;;;4928492;29;20659;-71
2023/08/10 05:22:49;;;;;;;3.80;1.60;;;;;;;;;;4925707;29;20264;-70
2023/08/10 05:25:15;;;;;;;4.50;1.63;;;;;;;;;;4900793;29;20277;-71
2023/08/10 05:27:45;;;;;;;6.33;1.97;;;;;;;;;;4924674;29;20195;-70
2023/08/10 05:30:12;;;;;;;2.97;1.60;;;;;;;;;;4917595;29;20599;-71
2023/08/10 05:32:39;;;;;;;2.67;1.47;;;;;;;;;;4934152;29;20205;-71
2023/08/10 05:35:07;;;;;;;3.53;1.50;;;;;;;;;;4919085;29;20319;-71
2023/08/10 05:37:34;;;;;;;4.23;1.60;;;;;;;;;;4914319;29;20210;-71
2023/08/10 05:40:01;;;;;;;6.80;1.40;;;;;;;;;;4911429;29;20195;-71
2023/08/10 05:42:28;;;;;;;3.13;1.30;;;;;;;;;;4898655;29;20192;-71
2023/08/10 05:44:55;;;;;;;4.27;1.50;;;;;;;;;;4913372;29;20204;-71
2023/08/10 05:47:22;;;;;;;3.83;1.73;;;;;;;;;;4914054;29;20323;-71
2023/08/10 05:50:07;;;;;;;4.37;1.47;;;;;;;;;;4913782;29;20513;-71
2023/08/10 05:52:33;;;;;;;3.67;1.60;;;;;;;;;;4914572;29;20270;-71
2023/08/10 05:55:00;;;;;;;6.37;1.70;;;;;;;;;;4913681;29;20199;-71
2023/08/10 05:57:27;;;;;;;5.97;1.47;;;;;;;;;;4896863;29;20213;-71
2023/08/10 05:59:53;;;;;;;5.57;1.60;;;;;;;;;;4895813;29;20195;-71
2023/08/10 06:02:38;;;;;;;5.23;1.50;;;;;;;;;;4922887;29;20185;-71
2023/08/10 06:05:06;;;;;;;6.17;1.80;;;;;;;;;;4901233;29;20299;-71
2023/08/10 06:07:33;;;;;;;3.90;1.40;;;;;;;;;;4913385;29;20278;-71
2023/08/10 06:10:00;;;;;;;5.67;1.50;;;;;;;;;;4911064;29;20286;-71
2023/08/10 06:12:27;;;;;;;3.93;1.50;;;;;;;;;;4894957;29;20211;-71
2023/08/10 06:14:54;;;;;;;4.60;1.70;;;;;;;;;;4909329;29;20558;-71
2023/08/10 06:17:21;;;;;;;5.53;1.70;;;;;;;;;;4910659;29;20231;-71
2023/08/10 06:19:51;;;;;;;5.93;1.90;;;;;;;;;;4910899;29;20214;-71
2023/08/10 06:22:36;;;;;;;8.90;2.27;;;;;;;;;;4909398;29;20187;-71
2023/08/10 06:25:04;;;;;;;5.47;1.40;;;;;;;;;;4917095;29;20207;-71
2023/08/10 06:27:31;;;;;;;5.67;1.77;;;;;;;;;;4910256;29;20205;-72
2023/08/10 06:29:58;;;;;;;6.23;1.70;;;;;;;;;;4891981;29;20283;-71
2023/08/10 06:32:25;;;;;;;4.23;1.57;;;;;;;;;;4900744;29;20198;-71
2023/08/10 06:34:54;;;;;;;5.53;1.83;;;;;;;;;;4893283;29;20219;-72
2023/08/10 06:37:21;;;;;;;5.37;1.53;;;;;;;;;;4906259;29;20202;-71
2023/08/10 06:39:48;;;;;;;4.93;1.90;;;;;;;;;;4884817;29;20660;-71
2023/08/10 06:42:16;;;;;;;5.30;1.70;;;;;;;;;;4897160;29;20196;-71
2023/08/10 06:44:43;;;;;;;6.57;1.77;;;;;;;;;;4884227;29;20188;-71
2023/08/10 06:47:10;;;;;;;5.10;1.90;;;;;;;;;;4905074;29;20298;-71
2023/08/10 06:49:37;;;;;;;5.00;1.63;;;;;;;;;;4893723;29;20541;-71
2023/08/10 06:52:04;;;;;;;8.47;1.80;;;;;;;;;;4885113;29;20192;-71
2023/08/10 06:54:31;;;;;;;7.13;1.93;;;;;;;;;;4865708;29;20283;-71
2023/08/10 06:57:16;;;;;;;4.07;1.87;;;;;;;;;;4909106;29;20175;-71
2023/08/10 06:59:42;;;;;;;4.73;1.60;;;;;;;;;;4909509;29;20595;-71
2023/08/10 07:02:27;;;;;;;6.33;2.00;;;;;;;;;;4885931;29;20579;-71
2023/08/10 07:04:54;;;;;;;6.47;1.63;;;;;;;;;;4899157;29;20634;-71
2023/08/10 07:07:20;;;;;;;6.13;1.60;;;;;;;;;;4910665;29;20675;-71
2023/08/10 07:09:47;;;;;;;5.27;1.60;;;;;;;;;;4888631;29;20188;-72
2023/08/10 07:12:14;;;;;;;8.27;1.93;;;;;;;;;;4895240;29;20185;-71
2023/08/10 07:14:58;;;;;;;4.73;1.70;;;;;;;;;;4907026;29;20578;-71
2023/08/10 07:17:25;;;;;;;7.00;1.70;;;;;;;;;;4908763;29;20548;-71
2023/08/10 07:19:52;;;;;;;8.27;2.23;;;;;;;;;;4897218;29;20225;-71
2023/08/10 07:22:19;;;;;;;9.73;1.77;;;;;;;;;;4895728;29;20661;-71
2023/08/10 07:24:45;;;;;;;5.43;1.80;;;;;;;;;;4911776;29;20203;-72
2023/08/10 07:27:30;;;;;;;6.53;1.70;;;;;;;;;;4891967;29;20625;-72
2023/08/10 07:29:57;;;;;;;3.67;1.57;;;;;;;;;;4888682;29;20620;-71
2023/08/10 07:32:24;;;;;;;5.03;1.50;;;;;;;;;;4913411;29;20199;-71
2023/08/10 07:34:50;;;;;;;6.03;1.30;;;;;;;;;;4895716;29;20223;-73
2023/08/10 07:37:17;;;;;;;4.23;1.67;;;;;;;;;;4905099;29;20190;-71
2023/08/10 07:39:44;;;;;;;5.60;1.60;;;;;;;;;;4913854;29;20196;-72
2023/08/10 07:42:11;;;;;;;8.80;1.90;;;;;;;;;;4897854;29;20980;-71
2023/08/10 07:44:38;;;;;;;4.57;1.50;;;;;;;;;;4908529;29;20317;-72
2023/08/10 07:47:04;;;;;;;6.83;1.87;;;;;;;;;;4913782;29;20298;-71
2023/08/10 07:49:31;;;;;;;4.03;1.37;;;;;;;;;;4913984;29;20196;-71
2023/08/10 07:51:58;;;;;;;5.70;2.03;;;;;;;;;;4895730;29;20251;-71
2023/08/10 07:54:42;;;;;;;5.53;1.77;;;;;;;;;;4911618;29;20350;-72
2023/08/10 07:57:09;;;;;;;6.73;1.37;;;;;;;;;;4912991;29;20243;-71
2023/08/10 07:59:36;;;;;;;8.37;1.97;;;;;;;;;;4907950;29;20199;-71
2023/08/10 08:02:03;;;;;;;4.57;1.67;;;;;;;;;;4912441;29;20283;-72
2023/08/10 08:04:31;;;;;;;6.47;1.90;;;;;;;;;;4897027;29;20273;-71
2023/08/10 08:06:58;;;;;;;7.33;1.63;;;;;;;;;;4897044;29;20198;-72
2023/08/10 08:09:24;;;;;;;5.77;1.80;;;;;;;;;;4911761;29;20196;-71
2023/08/10 08:11:51;;;;;;;5.60;1.90;;;;;;;;;;4894730;29;20264;-72
2023/08/10 08:14:18;;;;;;;4.03;1.60;;;;;;;;;;4892583;29;20219;-72
2023/08/10 08:16:45;;;;;;;5.70;1.53;;;;;;;;;;4894991;29;20199;-71
2023/08/10 08:19:12;;;;;;;6.57;1.80;;;;;;;;;;4896862;29;21025;-71
2023/08/10 08:21:38;;;;;;;5.23;1.60;;;;;;;;;;4897002;29;20202;-72
2023/08/10 08:24:05;;;;;;;4.43;1.60;;;;;;;;;;4912194;29;20203;-71
2023/08/10 08:26:33;;;;;;;8.20;1.83;;;;;;;;;;4896612;29;20217;-71
2023/08/10 08:29:00;;;;;;;6.43;1.77;;;;;;;;;;4893053;29;20191;-71
2023/08/10 08:31:27;;;;;;;5.70;1.80;;;;;;;;;;4912472;29;20534;-71
2023/08/10 08:33:54;;;;;;;5.23;1.80;;;;;;;;;;4908929;29;20219;-71
2023/08/10 08:36:21;;;;;;;5.23;1.60;;;;;;;;;;4909779;29;20204;-71
2023/08/10 08:38:48;;;;;;;5.53;1.50;;;;;;;;;;4881143;29;20572;-71
2023/08/10 08:41:16;;;;;;;4.87;1.37;;;;;;;;;;4888241;29;20239;-72
2023/08/10 08:44:01;;;;;;;5.73;1.40;;;;;;;;;;4888178;29;20180;-72
2023/08/10 08:46:28;;;;;;;4.07;1.40;;;;;;;;;;4878415;29;20196;-71
2023/08/10 08:48:55;;;;;;;5.87;1.90;;;;;;;;;;4892075;29;20303;-71
2023/08/10 08:51:22;;;;;;;8.10;1.93;;;;;;;;;;4907628;29;20207;-71
2023/08/10 08:53:49;;;;;;;7.40;1.40;;;;;;;;;;4893571;29;20222;-72
2023/08/10 08:56:16;;;;;;;7.13;1.60;;;;;;;;;;4880683;29;20247;-71
2023/08/10 08:58:43;;;;;;;3.47;1.23;;;;;;;;;;4906204;29;20199;-71
2023/08/10 09:01:10;;;;;;;5.40;1.47;;;;;;;;;;4893642;29;20203;-71
2023/08/10 09:03:37;;;;;;;4.57;1.30;;;;;;;;;;4911095;29;20715;-71
2023/08/10 09:06:04;;;;;;;5.23;1.57;;;;;;;;;;4877216;29;20686;-71
2023/08/10 09:08:31;;;;;;;4.57;1.47;;;;;;;;;;4891747;29;20200;-71
2023/08/10 09:10:58;;;;;;;2.53;1.10;;;;;;;;;;4907511;29;20195;-73
2023/08/10 09:13:25;;;;;;;5.13;1.63;;;;;;;;;;4877660;29;20255;-71
2023/08/10 09:16:08;;;;;;;4.63;1.30;;;;;;;;;;4910145;29;20303;-72
2023/08/10 09:18:37;;;;;;;3.83;1.30;;;;;;;;;;4917380;29;20261;-72
2023/08/10 09:21:23;;;;;;;7.53;1.40;;;;;;;;;;4895363;29;20201;-72
2023/08/10 09:23:56;;;;;;;6.83;1.40;;;;;;;;;;4912471;29;20746;-71
2023/08/10 09:26:25;;;;;;;5.90;1.57;;;;;;;;;;4914000;29;20218;-71
2023/08/10 09:28:52;;;;;;;2.63;1.10;;;;;;;;;;4896699;29;20207;-72
2023/08/10 09:31:23;;;;;;;5.83;1.60;;;;;;;;;;4914958;29;20195;-71
2023/08/10 09:33:57;;;;;;;4.47;1.43;;;;;;;;;;4913181;29;20298;-71
2023/08/10 09:36:24;;;;;;;4.60;1.20;;;;;;;;;;4895886;29;20195;-71
2023/08/10 09:38:53;;;;;;;3.77;1.27;;;;;;;;;;4913098;29;20199;-71
2023/08/10 09:41:21;;;;;;;5.77;1.50;;;;;;;;;;4912787;29;20195;-71
2023/08/10 09:43:48;;;;;;;9.10;1.57;;;;;;;;;;4910944;29;20198;-71
2023/08/10 09:46:16;;;;;;;7.70;1.63;;;;;;;;;;4895289;29;20215;-71
2023/08/10 09:48:44;;;;;;;8.37;1.30;;;;;;;;;;4894918;29;20223;-71
2023/08/10 09:51:11;;;;;;;6.77;1.30;;;;;;;;;;4912443;29;20183;-71
2023/08/10 09:53:38;;;;;;;8.10;1.40;;;;;;;;;;4912840;29;20243;-71
2023/08/10 09:56:08;;;;;;;5.03;1.23;;;;;;;;;;4893899;29;20199;-71
2023/08/10 09:58:36;;;;;;;4.43;1.50;;;;;;;;;;4914288;29;20281;-71
2023/08/10 10:01:07;;;;;;;5.77;1.47;;;;;;;;;;4896108;29;20203;-71
2023/08/10 10:03:34;;;;;;;5.27;1.70;;;;;;;;;;4895696;29;20217;-71
2023/08/10 10:06:01;;;;;;;8.33;1.63;;;;;;;;;;4912468;29;20255;-71
2023/08/10 10:08:29;;;;;;;6.27;1.50;;;;;;;;;;4895696;29;20186;-72
2023/08/10 10:11:01;;;;;;;3.20;1.47;;;;;;;;;;4879796;29;20199;-72
2023/08/10 10:13:28;;;;;;;3.90;1.13;;;;;;;;;;4895881;29;20187;-71
2023/08/10 10:15:55;;;;;;;6.00;1.30;;;;;;;;;;4895011;29;20255;-71
2023/08/10 10:18:23;;;;;;;5.13;1.30;;;;;;;;;;4923962;29;20202;-71
2023/08/10 10:21:07;;;;;;;6.10;1.63;;;;;;;;;;4916691;29;20167;-71
2023/08/10 10:23:34;;;;;;;5.30;1.60;;;;;;;;;;4904136;29;20243;-72
2023/08/10 10:26:10;;;;;;;7.13;1.20;;;;;;;;;;4895283;29;20290;-71
2023/08/10 10:28:38;;;;;;;4.03;1.20;;;;;;;;;;4911957;29;20240;-72
2023/08/10 10:31:11;;;;;;;3.33;1.30;;;;;;;;;;4895205;29;20187;-71
2023/08/10 10:33:53;;;;;;;6.27;1.27;;;;;;;;;;4894395;29;20210;-71
2023/08/10 10:36:20;;;;;;;5.00;1.60;;;;;;;;;;4911874;29;20278;-72
2023/08/10 10:38:56;;;;;;;5.20;1.57;;;;;;;;;;4896044;29;20187;-72
2023/08/10 10:41:41;;;;;;;5.03;1.50;;;;;;;;;;4896265;29;20199;-71
2023/08/10 10:44:08;;;;;;;4.93;1.20;;;;;;;;;;4912204;29;20548;-71
2023/08/10 10:46:38;;;;;;;7.73;1.60;;;;;;;;;;4892485;29;20251;-71
2023/08/10 10:49:12;;;;;;;7.07;1.30;;;;;;;;;;4911707;29;20556;-71
2023/08/10 10:51:49;;;;;;;2.47;1.03;;;;;;;;;;4926598;29;20893;-71
2023/08/10 10:54:16;;;;;;;4.37;1.20;;;;;;;;;;4927680;29;20234;-71
2023/08/10 10:56:43;;;;;;;5.87;1.57;;;;;;;;;;4894849;29;20195;-71
2023/08/10 10:59:10;;;;;;;6.43;1.43;;;;;;;;;;4894761;29;20211;-71
2023/08/10 11:01:36;;;;;;;4.23;1.33;;;;;;;;;;4915207;29;20212;-71
2023/08/10 11:04:05;;;;;;;4.40;1.40;;;;;;;;;;4915522;29;20576;-71
2023/08/10 11:06:35;;;;;;;6.23;1.00;;;;;;;;;;4898803;29;21026;-71
2023/08/10 11:09:06;;;;;;;6.90;1.87;;;;;;;;;;4915863;29;20278;-72
2023/08/10 11:11:50;;;;;;;5.63;1.37;;;;;;;;;;4901798;29;20216;-71
2023/08/10 11:14:19;;;;;;;5.83;1.70;;;;;;;;;;4913331;29;20238;-71
2023/08/10 11:16:45;;;;;;;2.43;1.00;;;;;;;;;;4914711;29;20234;-71
2023/08/10 11:19:16;;;;;;;4.63;1.20;;;;;;;;;;4898298;29;20179;-72
2023/08/10 11:21:44;;;;;;;4.13;1.40;;;;;;;;;;4898831;29;20719;-71
2023/08/10 11:24:12;;;;;;;4.33;1.40;;;;;;;;;;4883009;29;20192;-71
2023/08/10 11:26:39;;;;;;;5.43;1.30;;;;;;;;;;4883041;29;20207;-71
2023/08/10 11:29:06;;;;;;;3.83;1.30;;;;;;;;;;4898228;29;20200;-71
2023/08/10 11:31:44;;;;;;;5.67;2.03;;;;;;;;;;4882745;29;20200;-71
2023/08/10 11:34:20;;;;;;;3.67;1.47;;;;;;;;;;4894439;29;20215;-71
2023/08/10 11:37:04;;;;;;;3.70;1.27;;;;;;;;;;4894794;29;20568;-71
2023/08/10 11:39:32;;;;;;;4.60;1.20;;;;;;;;;;4896124;29;20203;-71
2023/08/10 11:41:58;;;;;;;7.40;1.57;;;;;;;;;;4896357;29;20287;-71
2023/08/10 11:44:26;;;;;;;3.17;1.33;;;;;;;;;;4895824;29;20176;-72
2023/08/10 11:46:56;;;;;;;7.33;1.50;;;;;;;;;;4903680;29;20235;-73
2023/08/10 11:49:29;;;;;;;5.67;1.90;;;;;;;;;;4890127;29;20189;-72
2023/08/10 11:51:59;;;;;;;5.67;1.37;;;;;;;;;;4902470;29;20199;-71
2023/08/10 11:54:34;;;;;;;4.10;1.37;;;;;;;;;;4896479;29;20267;-71
2023/08/10 11:57:09;;;;;;;4.17;1.40;;;;;;;;;;4895625;29;20208;-71
2023/08/10 11:59:36;;;;;;;5.73;1.30;;;;;;;;;;4896659;29;20278;-71
2023/08/10 12:02:04;;;;;;;5.40;1.37;;;;;;;;;;4887515;29;21286;-71
2023/08/10 12:04:32;;;;;;;4.27;1.67;;;;;;;;;;4890121;29;20203;-71
2023/08/10 12:07:03;;;;;;;6.30;1.63;;;;;;;;;;4905568;29;20716;-70
2023/08/10 12:09:33;;;;;;;4.27;1.33;;;;;;;;;;4908336;29;20194;-71
2023/08/10 12:12:02;;;;;;;4.80;1.30;;;;;;;;;;4925591;29;20301;-71
2023/08/10 12:14:31;;;;;;;5.20;1.30;;;;;;;;;;4887161;29;21044;-70
2023/08/10 12:16:58;;;;;;;3.93;1.23;;;;;;;;;;4914888;29;20190;-71
2023/08/10 12:19:25;;;;;;;6.07;1.43;;;;;;;;;;4898730;29;20190;-71
2023/08/10 12:21:52;;;;;;;4.23;1.13;;;;;;;;;;4930538;29;20201;-71
2023/08/10 12:24:20;;;;;;;6.00;1.60;;;;;;;;;;4925631;29;20188;-71
2023/08/10 12:26:48;;;;;;;4.30;1.23;;;;;;;;;;4890750;29;20206;-71
2023/08/10 12:29:17;;;;;;;7.33;1.40;;;;;;;;;;4926540;29;20191;-70
2023/08/10 12:31:44;;;;;;;4.20;1.47;;;;;;;;;;4923334;29;20211;-71
2023/08/10 12:34:11;;;;;;;3.23;1.30;;;;;;;;;;4911434;29;20200;-71
2023/08/10 12:36:38;;;;;;;4.67;1.40;;;;;;;;;;4872076;29;20287;-71
2023/08/10 12:39:05;;;;;;;2.77;1.47;;;;;;;;;;4906150;29;20266;-71
2023/08/10 12:41:32;;;;;;;4.13;1.10;;;;;;;;;;4891809;29;20944;-71
2023/08/10 12:43:59;;;;;;;4.17;1.30;;;;;;;;;;4908313;29;20188;-71
2023/08/10 12:46:27;;;;;;;4.00;1.00;;;;;;;;;;4897877;29;20267;-71
2023/08/10 12:48:55;;;;;;;2.33;1.10;;;;;;;;;;4906979;29;20206;-71
2023/08/10 12:51:22;;;;;;;5.73;1.03;;;;;;;;;;4905804;29;20203;-72
2023/08/10 12:53:49;;;;;;;1.87;0.90;;;;;;;;;;4882077;29;20262;-71
2023/08/10 12:56:15;;;;;;;4.67;1.03;;;;;;;;;;4894170;29;20999;-72
2023/08/10 12:58:42;;;;;;;4.93;1.40;;;;;;;;;;4892962;29;20192;-71
2023/08/10 13:01:09;;;;;;;4.03;1.23;;;;;;;;;;4905683;29;20214;-71
2023/08/10 13:03:36;;;;;;;1.63;0.87;;;;;;;;;;4882223;29;20262;-72
2023/08/10 13:06:03;;;;;;;3.07;1.10;;;;;;;;;;4890778;29;20200;-71
2023/08/10 13:08:30;;;;;;;4.90;1.40;;;;;;;;;;4908402;29;20211;-71
2023/08/10 13:10:57;;;;;;;5.37;1.17;;;;;;;;;;4912073;29;20283;-71
2023/08/10 13:13:24;;;;;;;4.07;1.40;;;;;;;;;;4904751;29;20392;-71
2023/08/10 13:15:52;;;;;;;3.10;0.90;;;;;;;;;;4912521;29;20207;-69
2023/08/10 13:18:20;;;;;;;3.60;1.20;;;;;;;;;;4895651;29;20929;-70
2023/08/10 13:20:47;;;;;;;6.27;1.17;;;;;;;;;;4891887;29;20219;-71
2023/08/10 13:23:14;;;;;;;4.07;1.10;;;;;;;;;;4910489;29;20207;-70
2023/08/10 13:25:41;;;;;;;3.53;1.00;;;;;;;;;;4908275;29;21019;-70
2023/08/10 13:28:08;;;;;;;3.73;1.20;;;;;;;;;;4910565;29;20195;-70
2023/08/10 13:30:35;;;;;;;4.10;1.00;;;;;;;;;;4893260;29;20191;-70
2023/08/10 13:33:02;;;;;;;6.17;1.33;;;;;;;;;;4909949;29;20209;-71
2023/08/10 13:35:29;;;;;;;7.80;1.00;;;;;;;;;;4901066;29;20231;-71
2023/08/10 13:37:55;;;;;;;5.87;1.30;;;;;;;;;;4895004;29;20199;-71
2023/08/10 13:40:22;;;;;;;4.00;1.37;;;;;;;;;;4912439;29;20535;-71
2023/08/10 13:42:49;;;;;;;2.87;1.10;;;;;;;;;;4886874;29;20226;-71
2023/08/10 13:45:16;;;;;;;4.43;1.40;;;;;;;;;;4906567;29;20247;-73
2023/08/10 13:48:03;;;;;;;5.50;1.00;;;;;;;;;;4887219;29;20237;-73
2023/08/10 13:50:30;;;;;;;5.50;1.10;;;;;;;;;;4903639;29;20202;-73
2023/08/10 13:52:57;;;;;;;5.43;1.30;;;;;;;;;;4889077;29;20195;-72
2023/08/10 13:55:24;;;;;;;4.57;1.37;;;;;;;;;;4891519;29;20259;-73
2023/08/10 13:57:50;;;;;;;4.10;1.20;;;;;;;;;;4903878;29;20329;-73
2023/08/10 14:00:18;;;;;;;4.53;1.37;;;;;;;;;;4900137;29;20224;-73
2023/08/10 14:02:46;;;;;;;4.30;1.30;;;;;;;;;;4896858;29;20234;-73
2023/08/10 14:05:13;;;;;;;3.27;1.10;;;;;;;;;;4898520;29;20637;-73
2023/08/10 14:07:41;;;;;;;5.57;0.97;;;;;;;;;;4885987;29;20934;-74
2023/08/10 14:10:10;;;;;;;5.13;1.10;;;;;;;;;;4906350;29;20209;-74
2023/08/10 14:12:38;;;;;;;2.70;0.90;;;;;;;;;;4873147;29;20234;-75
2023/08/10 14:15:05;;;;;;;3.53;1.20;;;;;;;;;;4910704;29;20306;-73
2023/08/10 14:17:32;;;;;;;3.10;1.10;;;;;;;;;;4910799;29;20219;-74
2023/08/10 14:19:59;;;;;;;2.33;1.07;;;;;;;;;;4909846;29;20548;-73
2023/08/10 14:22:43;;;;;;;2.53;0.90;;;;;;;;;;4911100;29;20198;-70
2023/08/10 14:25:10;;;;;;;4.00;1.10;;;;;;;;;;4911285;29;20187;-70
2023/08/10 14:27:55;;;;;;;4.20;1.00;;;;;;;;;;4897379;29;20195;-70
2023/08/10 14:30:22;;;;;;;3.27;0.70;;;;;;;;;;4894651;29;20591;-70
2023/08/10 14:33:06;;;;;;;3.97;1.20;;;;;;;;;;4905102;29;20183;-70
2023/08/10 14:35:33;;;;;;;3.77;0.87;;;;;;;;;;4910912;29;20687;-71
2023/08/10 14:38:00;;;;;;;7.40;1.10;;;;;;;;;;4911895;29;20203;-70
2023/08/10 14:40:27;;;;;;;2.27;0.90;;;;;;;;;;4911563;29;20690;-70
2023/08/10 14:42:54;;;;;;;3.10;1.07;;;;;;;;;;4911004;29;20202;-70
2023/08/10 14:45:38;;;;;;;3.20;1.40;;;;;;;;;;4911394;29;20176;-70
2023/08/10 14:48:05;;;;;;;3.93;1.03;;;;;;;;;;4909449;29;20226;-70
2023/08/10 14:50:32;;;;;;;4.37;1.50;;;;;;;;;;4894170;29;20900;-70
2023/08/10 14:53:00;;;;;;;3.07;1.30;;;;;;;;;;4911516;29;20561;-70
2023/08/10 14:55:27;;;;;;;4.63;0.90;;;;;;;;;;4911118;29;20223;-70
2023/08/10 14:57:54;;;;;;;2.40;0.97;;;;;;;;;;4916447;29;20706;-72
2023/08/10 15:00:23;;;;;;;3.30;1.00;;;;;;;;;;4907910;29;20210;-74
2023/08/10 15:02:51;;;;;;;2.33;1.00;;;;;;;;;;4892642;29;20245;-73
2023/08/10 15:05:19;;;;;;;3.03;0.90;;;;;;;;;;4909361;29;20195;-73
2023/08/10 15:07:46;;;;;;;3.73;1.00;;;;;;;;;;4928824;29;20197;-74
2023/08/10 15:10:12;;;;;;;3.50;0.93;;;;;;;;;;4901810;29;20968;-73
2023/08/10 15:12:40;;;;;;;2.60;0.93;;;;;;;;;;4905323;29;20210;-71
2023/08/10 15:15:08;;;;;;;2.57;1.23;;;;;;;;;;4923895;29;20217;-73
2023/08/10 15:17:35;;;;;;;2.00;0.70;;;;;;;;;;4916000;29;20199;-72
2023/08/10 15:20:20;;;;;;;1.80;0.90;;;;;;;;;;4898147;29;20175;-72
2023/08/10 15:22:47;;;;;;;2.73;0.87;;;;;;;;;;4903017;29;20191;-72
2023/08/10 15:25:14;;;;;;;2.33;1.00;;;;;;;;;;4914752;29;20606;-72
2023/08/10 15:27:42;;;;;;;3.23;1.10;;;;;;;;;;4908663;29;20251;-73
2023/08/10 15:30:09;;;;;;;5.00;1.30;;;;;;;;;;4927941;29;20277;-71